sensor_id;sensor_type;location;lat;lon;timestamp;P1;durP1;ratioP1;P2;durP2;ratioP2
7783;SDS011;19359;51.402;6.778;2023-06-10T00:02:05;811.28;;;611.25;;
7783;SDS011;19359;51.402;6.778;2023-06-10T00:04:33;811.53;;;628.15;;
7783;SDS011;19359;51.402;6.778;2023-06-10T00:07:01;823.00;;;630.22;;
7783;SDS011;19359;51.402;6.778;2023-06-10T00:09:28;820.25;;;617.78;;
7783;SDS011;19359;51.402;6.778;2023-06-10T00:11:57;808.22;;;609.70;;
7783;SDS011;19359;51.402;6.778;2023-06-10T00:14:25;809.20;;;606.35;;
7783;SDS011;19359;51.402;6.778;2023-06-10T00:16:52;813.30;;;614.38;;
7783;SDS011;19359;51.402;6.778;2023-06-10T00:19:20;815.55;;;617.85;;
7783;SDS011;19359;51.402;6.778;2023-06-10T00:21:50;806.90;;;592.10;;
7783;SDS011;19359;51.402;6.778;2023-06-10T00:24:18;809.08;;;608.85;;
7783;SDS011;19359;51.402;6.778;2023-06-10T00:26:45;809.10;;;603.97;;
7783;SDS011;19359;51.402;6.778;2023-06-10T00:29:13;811.35;;;599.80;;
7783;SDS011;19359;51.402;6.778;2023-06-10T00:31:41;812.35;;;600.42;;
7783;SDS011;19359;51.402;6.778;2023-06-10T00:34:08;807.55;;;592.30;;
7783;SDS011;19359;51.402;6.778;2023-06-10T00:36:35;808.30;;;592.38;;
7783;SDS011;19359;51.402;6.778;2023-06-10T00:39:02;805.90;;;594.05;;
7783;SDS011;19359;51.402;6.778;2023-06-10T00:41:30;803.40;;;582.95;;
7783;SDS011;19359;51.402;6.778;2023-06-10T00:43:58;832.92;;;611.30;;
7783;SDS011;19359;51.402;6.778;2023-06-10T00:46:27;800.08;;;594.70;;
7783;SDS011;19359;51.402;6.778;2023-06-10T00:48:57;811.72;;;590.53;;
7783;SDS011;19359;51.402;6.778;2023-06-10T00:51:24;798.22;;;572.63;;
7783;SDS011;19359;51.402;6.778;2023-06-10T00:53:51;804.25;;;577.97;;
7783;SDS011;19359;51.402;6.778;2023-06-10T00:56:19;807.78;;;592.08;;
7783;SDS011;19359;51.402;6.778;2023-06-10T00:58:46;801.50;;;580.42;;
7783;SDS011;19359;51.402;6.778;2023-06-10T01:01:14;803.83;;;579.58;;
7783;SDS011;19359;51.402;6.778;2023-06-10T01:03:42;809.15;;;577.15;;
7783;SDS011;19359;51.402;6.778;2023-06-10T01:06:14;799.97;;;574.92;;
7783;SDS011;19359;51.402;6.778;2023-06-10T01:08:45;794.60;;;565.40;;
7783;SDS011;19359;51.402;6.778;2023-06-10T01:11:17;809.30;;;589.55;;
7783;SDS011;19359;51.402;6.778;2023-06-10T01:13:45;797.95;;;564.90;;
7783;SDS011;19359;51.402;6.778;2023-06-10T01:16:13;802.53;;;562.88;;
7783;SDS011;19359;51.402;6.778;2023-06-10T01:18:40;796.85;;;559.85;;
7783;SDS011;19359;51.402;6.778;2023-06-10T01:23:43;812.78;;;579.72;;
7783;SDS011;19359;51.402;6.778;2023-06-10T01:26:10;810.10;;;564.83;;
7783;SDS011;19359;51.402;6.778;2023-06-10T01:28:38;806.05;;;570.60;;
7783;SDS011;19359;51.402;6.778;2023-06-10T01:31:13;801.00;;;562.28;;
7783;SDS011;19359;51.402;6.778;2023-06-10T01:33:43;801.70;;;553.08;;
7783;SDS011;19359;51.402;6.778;2023-06-10T01:36:13;801.92;;;561.10;;
7783;SDS011;19359;51.402;6.778;2023-06-10T01:38:44;801.88;;;555.95;;
7783;SDS011;19359;51.402;6.778;2023-06-10T01:41:11;796.20;;;549.72;;
7783;SDS011;19359;51.402;6.778;2023-06-10T01:43:39;793.78;;;530.13;;
7783;SDS011;19359;51.402;6.778;2023-06-10T01:46:06;786.88;;;531.85;;
7783;SDS011;19359;51.402;6.778;2023-06-10T01:48:33;790.08;;;522.45;;
7783;SDS011;19359;51.402;6.778;2023-06-10T01:51:00;778.75;;;518.55;;
7783;SDS011;19359;51.402;6.778;2023-06-10T01:53:28;818.50;;;549.55;;
7783;SDS011;19359;51.402;6.778;2023-06-10T01:55:56;783.67;;;519.08;;
7783;SDS011;19359;51.402;6.778;2023-06-10T01:58:23;794.65;;;516.78;;
7783;SDS011;19359;51.402;6.778;2023-06-10T02:00:50;783.05;;;526.50;;
7783;SDS011;19359;51.402;6.778;2023-06-10T02:03:17;795.50;;;513.42;;
7783;SDS011;19359;51.402;6.778;2023-06-10T02:05:44;772.67;;;499.92;;
7783;SDS011;19359;51.402;6.778;2023-06-10T02:08:12;778.80;;;511.52;;
7783;SDS011;19359;51.402;6.778;2023-06-10T02:10:39;783.95;;;509.75;;
7783;SDS011;19359;51.402;6.778;2023-06-10T02:13:07;780.05;;;503.35;;
7783;SDS011;19359;51.402;6.778;2023-06-10T02:15:34;768.05;;;489.63;;
7783;SDS011;19359;51.402;6.778;2023-06-10T02:18:01;775.92;;;499.48;;
7783;SDS011;19359;51.402;6.778;2023-06-10T02:20:28;773.13;;;503.60;;
7783;SDS011;19359;51.402;6.778;2023-06-10T02:22:55;764.58;;;481.00;;
7783;SDS011;19359;51.402;6.778;2023-06-10T02:25:22;772.13;;;476.80;;
7783;SDS011;19359;51.402;6.778;2023-06-10T02:27:49;769.13;;;487.25;;
7783;SDS011;19359;51.402;6.778;2023-06-10T02:30:18;785.08;;;499.23;;
7783;SDS011;19359;51.402;6.778;2023-06-10T02:32:45;771.22;;;485.75;;
7783;SDS011;19359;51.402;6.778;2023-06-10T02:35:12;776.28;;;498.20;;
7783;SDS011;19359;51.402;6.778;2023-06-10T02:37:40;771.30;;;488.55;;
7783;SDS011;19359;51.402;6.778;2023-06-10T02:40:07;712.03;;;577.17;;
7783;SDS011;19359;51.402;6.778;2023-06-10T02:42:35;667.63;;;598.30;;
7783;SDS011;19359;51.402;6.778;2023-06-10T02:45:02;798.03;;;522.58;;
7783;SDS011;19359;51.402;6.778;2023-06-10T02:47:31;786.88;;;510.95;;
7783;SDS011;19359;51.402;6.778;2023-06-10T02:49:58;780.20;;;513.60;;
7783;SDS011;19359;51.402;6.778;2023-06-10T02:52:25;773.17;;;487.35;;
7783;SDS011;19359;51.402;6.778;2023-06-10T02:54:52;771.67;;;481.02;;
7783;SDS011;19359;51.402;6.778;2023-06-10T02:57:19;766.08;;;476.48;;
7783;SDS011;19359;51.402;6.778;2023-06-10T02:59:46;768.15;;;473.55;;
7783;SDS011;19359;51.402;6.778;2023-06-10T03:02:14;768.85;;;474.23;;
7783;SDS011;19359;51.402;6.778;2023-06-10T03:04:42;773.25;;;475.25;;
7783;SDS011;19359;51.402;6.778;2023-06-10T03:07:10;763.60;;;470.08;;
7783;SDS011;19359;51.402;6.778;2023-06-10T03:09:37;770.80;;;480.90;;
7783;SDS011;19359;51.402;6.778;2023-06-10T03:12:05;767.58;;;479.75;;
7783;SDS011;19359;51.402;6.778;2023-06-10T03:14:32;766.53;;;471.92;;
7783;SDS011;19359;51.402;6.778;2023-06-10T03:16:59;767.15;;;474.02;;
7783;SDS011;19359;51.402;6.778;2023-06-10T03:19:27;761.95;;;462.75;;
7783;SDS011;19359;51.402;6.778;2023-06-10T03:21:57;761.80;;;460.38;;
7783;SDS011;19359;51.402;6.778;2023-06-10T03:24:24;762.50;;;464.90;;
7783;SDS011;19359;51.402;6.778;2023-06-10T03:26:51;767.08;;;465.10;;
7783;SDS011;19359;51.402;6.778;2023-06-10T03:29:18;776.05;;;473.35;;
7783;SDS011;19359;51.402;6.778;2023-06-10T03:31:45;786.25;;;505.73;;
7783;SDS011;19359;51.402;6.778;2023-06-10T03:34:13;761.05;;;461.55;;
7783;SDS011;19359;51.402;6.778;2023-06-10T03:36:40;769.92;;;474.70;;
7783;SDS011;19359;51.402;6.778;2023-06-10T03:39:09;773.80;;;477.38;;
7783;SDS011;19359;51.402;6.778;2023-06-10T03:41:36;778.28;;;479.13;;
7783;SDS011;19359;51.402;6.778;2023-06-10T03:44:03;767.97;;;467.60;;
7783;SDS011;19359;51.402;6.778;2023-06-10T03:46:30;769.42;;;466.98;;
7783;SDS011;19359;51.402;6.778;2023-06-10T03:48:57;765.85;;;459.20;;
7783;SDS011;19359;51.402;6.778;2023-06-10T03:51:25;766.97;;;469.10;;
7783;SDS011;19359;51.402;6.778;2023-06-10T03:53:52;777.78;;;464.08;;
7783;SDS011;19359;51.402;6.778;2023-06-10T03:56:21;767.33;;;464.38;;
7783;SDS011;19359;51.402;6.778;2023-06-10T03:58:48;781.50;;;476.77;;
7783;SDS011;19359;51.402;6.778;2023-06-10T04:01:15;788.50;;;481.75;;
7783;SDS011;19359;51.402;6.778;2023-06-10T04:03:46;776.33;;;466.10;;
7783;SDS011;19359;51.402;6.778;2023-06-10T04:06:14;759.35;;;452.83;;
7783;SDS011;19359;51.402;6.778;2023-06-10T04:08:41;777.92;;;471.92;;
7783;SDS011;19359;51.402;6.778;2023-06-10T04:11:08;769.25;;;464.63;;
7783;SDS011;19359;51.402;6.778;2023-06-10T04:13:37;776.95;;;462.73;;
7783;SDS011;19359;51.402;6.778;2023-06-10T04:16:04;756.15;;;445.40;;
7783;SDS011;19359;51.402;6.778;2023-06-10T04:18:31;784.30;;;482.75;;
7783;SDS011;19359;51.402;6.778;2023-06-10T04:20:58;761.10;;;448.15;;
7783;SDS011;19359;51.402;6.778;2023-06-10T04:23:26;767.40;;;456.27;;
7783;SDS011;19359;51.402;6.778;2023-06-10T04:25:53;762.97;;;461.90;;
7783;SDS011;19359;51.402;6.778;2023-06-10T04:28:21;766.28;;;462.88;;
7783;SDS011;19359;51.402;6.778;2023-06-10T04:30:49;771.92;;;464.45;;
7783;SDS011;19359;51.402;6.778;2023-06-10T04:33:16;771.15;;;458.00;;
7783;SDS011;19359;51.402;6.778;2023-06-10T04:35:43;766.92;;;458.67;;
7783;SDS011;19359;51.402;6.778;2023-06-10T04:38:12;760.33;;;445.55;;
7783;SDS011;19359;51.402;6.778;2023-06-10T04:40:39;764.58;;;460.35;;
7783;SDS011;19359;51.402;6.778;2023-06-10T04:43:06;760.58;;;451.25;;
7783;SDS011;19359;51.402;6.778;2023-06-10T04:45:33;762.75;;;456.33;;
7783;SDS011;19359;51.402;6.778;2023-06-10T04:48:02;769.05;;;461.65;;
7783;SDS011;19359;51.402;6.778;2023-06-10T04:50:29;766.75;;;459.30;;
7783;SDS011;19359;51.402;6.778;2023-06-10T04:52:58;762.03;;;452.30;;
7783;SDS011;19359;51.402;6.778;2023-06-10T04:55:25;766.88;;;464.10;;
7783;SDS011;19359;51.402;6.778;2023-06-10T04:57:52;766.55;;;468.85;;
7783;SDS011;19359;51.402;6.778;2023-06-10T05:00:19;775.30;;;473.02;;
7783;SDS011;19359;51.402;6.778;2023-06-10T05:02:47;769.00;;;468.00;;
7783;SDS011;19359;51.402;6.778;2023-06-10T05:05:17;767.05;;;471.35;;
7783;SDS011;19359;51.402;6.778;2023-06-10T05:07:45;768.53;;;473.60;;
7783;SDS011;19359;51.402;6.778;2023-06-10T05:10:12;677.72;;;569.25;;
7783;SDS011;19359;51.402;6.778;2023-06-10T05:12:39;706.72;;;569.15;;
7783;SDS011;19359;51.402;6.778;2023-06-10T05:15:07;686.90;;;587.03;;
7783;SDS011;19359;51.402;6.778;2023-06-10T05:17:34;689.50;;;579.63;;
7783;SDS011;19359;51.402;6.778;2023-06-10T05:20:01;695.30;;;586.22;;
7783;SDS011;19359;51.402;6.778;2023-06-10T05:22:30;658.67;;;584.08;;
7783;SDS011;19359;51.402;6.778;2023-06-10T05:24:57;682.88;;;588.00;;
7783;SDS011;19359;51.402;6.778;2023-06-10T05:27:24;683.38;;;594.45;;
7783;SDS011;19359;51.402;6.778;2023-06-10T05:29:51;697.42;;;600.55;;
7783;SDS011;19359;51.402;6.778;2023-06-10T05:32:18;750.08;;;588.67;;
7783;SDS011;19359;51.402;6.778;2023-06-10T05:34:45;760.40;;;598.65;;
7783;SDS011;19359;51.402;6.778;2023-06-10T05:37:12;730.90;;;589.30;;
7783;SDS011;19359;51.402;6.778;2023-06-10T05:39:41;706.55;;;593.65;;
7783;SDS011;19359;51.402;6.778;2023-06-10T05:42:08;689.72;;;593.13;;
7783;SDS011;19359;51.402;6.778;2023-06-10T05:44:35;719.90;;;599.60;;
7783;SDS011;19359;51.402;6.778;2023-06-10T05:47:02;780.47;;;611.90;;
7783;SDS011;19359;51.402;6.778;2023-06-10T05:49:30;748.97;;;604.20;;
7783;SDS011;19359;51.402;6.778;2023-06-10T05:51:57;822.95;;;600.20;;
7783;SDS011;19359;51.402;6.778;2023-06-10T05:54:24;807.92;;;596.10;;
7783;SDS011;19359;51.402;6.778;2023-06-10T05:56:52;810.45;;;609.90;;
7783;SDS011;19359;51.402;6.778;2023-06-10T05:59:19;824.58;;;626.42;;
7783;SDS011;19359;51.402;6.778;2023-06-10T06:01:47;787.22;;;614.00;;
7783;SDS011;19359;51.402;6.778;2023-06-10T06:04:15;805.13;;;619.78;;
7783;SDS011;19359;51.402;6.778;2023-06-10T06:06:42;811.20;;;631.00;;
7783;SDS011;19359;51.402;6.778;2023-06-10T06:09:09;800.95;;;630.85;;
7783;SDS011;19359;51.402;6.778;2023-06-10T06:11:36;811.38;;;645.55;;
7783;SDS011;19359;51.402;6.778;2023-06-10T06:14:04;808.65;;;639.25;;
7783;SDS011;19359;51.402;6.778;2023-06-10T06:16:31;805.88;;;635.42;;
7783;SDS011;19359;51.402;6.778;2023-06-10T06:18:58;805.15;;;641.17;;
7783;SDS011;19359;51.402;6.778;2023-06-10T06:21:26;816.30;;;649.38;;
7783;SDS011;19359;51.402;6.778;2023-06-10T06:23:53;795.70;;;648.72;;
7783;SDS011;19359;51.402;6.778;2023-06-10T06:26:20;811.20;;;653.75;;
7783;SDS011;19359;51.402;6.778;2023-06-10T06:28:47;844.80;;;668.95;;
7783;SDS011;19359;51.402;6.778;2023-06-10T06:31:15;818.78;;;657.10;;
7783;SDS011;19359;51.402;6.778;2023-06-10T06:33:42;846.28;;;663.63;;
7783;SDS011;19359;51.402;6.778;2023-06-10T06:36:09;819.10;;;647.20;;
7783;SDS011;19359;51.402;6.778;2023-06-10T06:38:37;828.20;;;660.65;;
7783;SDS011;19359;51.402;6.778;2023-06-10T06:41:04;807.53;;;664.38;;
7783;SDS011;19359;51.402;6.778;2023-06-10T06:43:31;838.50;;;668.00;;
7783;SDS011;19359;51.402;6.778;2023-06-10T06:45:58;823.92;;;664.42;;
7783;SDS011;19359;51.402;6.778;2023-06-10T06:48:27;827.00;;;672.95;;
7783;SDS011;19359;51.402;6.778;2023-06-10T06:50:53;833.80;;;675.28;;
7783;SDS011;19359;51.402;6.778;2023-06-10T06:53:23;823.90;;;658.10;;
7783;SDS011;19359;51.402;6.778;2023-06-10T06:55:50;821.67;;;660.65;;
7783;SDS011;19359;51.402;6.778;2023-06-10T06:58:17;828.00;;;674.72;;
7783;SDS011;19359;51.402;6.778;2023-06-10T07:00:44;829.72;;;660.13;;
7783;SDS011;19359;51.402;6.778;2023-06-10T07:03:11;814.00;;;649.22;;
7783;SDS011;19359;51.402;6.778;2023-06-10T07:05:39;811.20;;;642.28;;
7783;SDS011;19359;51.402;6.778;2023-06-10T07:08:06;813.40;;;648.95;;
7783;SDS011;19359;51.402;6.778;2023-06-10T07:10:33;807.00;;;641.13;;
7783;SDS011;19359;51.402;6.778;2023-06-10T07:13:00;815.97;;;649.30;;
7783;SDS011;19359;51.402;6.778;2023-06-10T07:15:27;822.30;;;667.22;;
7783;SDS011;19359;51.402;6.778;2023-06-10T07:17:54;815.33;;;653.63;;
7783;SDS011;19359;51.402;6.778;2023-06-10T07:20:21;831.47;;;673.97;;
7783;SDS011;19359;51.402;6.778;2023-06-10T07:22:50;814.10;;;656.35;;
7783;SDS011;19359;51.402;6.778;2023-06-10T07:25:17;811.90;;;662.25;;
7783;SDS011;19359;51.402;6.778;2023-06-10T07:27:44;815.67;;;659.47;;
7783;SDS011;19359;51.402;6.778;2023-06-10T07:30:12;821.65;;;675.63;;
7783;SDS011;19359;51.402;6.778;2023-06-10T07:32:39;822.90;;;671.63;;
7783;SDS011;19359;51.402;6.778;2023-06-10T07:35:08;822.95;;;662.70;;
7783;SDS011;19359;51.402;6.778;2023-06-10T07:37:35;822.50;;;668.78;;
7783;SDS011;19359;51.402;6.778;2023-06-10T07:40:04;822.13;;;682.30;;
7783;SDS011;19359;51.402;6.778;2023-06-10T07:42:34;817.53;;;676.08;;
7783;SDS011;19359;51.402;6.778;2023-06-10T07:45:01;831.47;;;685.45;;
7783;SDS011;19359;51.402;6.778;2023-06-10T07:47:28;827.80;;;698.58;;
7783;SDS011;19359;51.402;6.778;2023-06-10T07:49:55;821.47;;;694.05;;
7783;SDS011;19359;51.402;6.778;2023-06-10T07:52:23;831.35;;;703.67;;
7783;SDS011;19359;51.402;6.778;2023-06-10T07:54:50;824.75;;;705.70;;
7783;SDS011;19359;51.402;6.778;2023-06-10T07:57:19;829.47;;;697.28;;
7783;SDS011;19359;51.402;6.778;2023-06-10T07:59:46;821.92;;;699.28;;
7783;SDS011;19359;51.402;6.778;2023-06-10T08:02:14;824.75;;;701.53;;
7783;SDS011;19359;51.402;6.778;2023-06-10T08:04:41;824.30;;;695.95;;
7783;SDS011;19359;51.402;6.778;2023-06-10T08:07:08;825.60;;;699.50;;
7783;SDS011;19359;51.402;6.778;2023-06-10T08:09:35;834.13;;;711.10;;
7783;SDS011;19359;51.402;6.778;2023-06-10T08:12:02;821.47;;;689.97;;
7783;SDS011;19359;51.402;6.778;2023-06-10T08:14:31;816.38;;;691.67;;
7783;SDS011;19359;51.402;6.778;2023-06-10T08:16:58;817.15;;;692.22;;
7783;SDS011;19359;51.402;6.778;2023-06-10T08:19:25;848.30;;;713.30;;
7783;SDS011;19359;51.402;6.778;2023-06-10T08:21:52;821.78;;;701.58;;
7783;SDS011;19359;51.402;6.778;2023-06-10T08:24:19;828.08;;;707.53;;
7783;SDS011;19359;51.402;6.778;2023-06-10T08:26:46;837.50;;;720.97;;
7783;SDS011;19359;51.402;6.778;2023-06-10T08:29:13;819.42;;;704.88;;
7783;SDS011;19359;51.402;6.778;2023-06-10T08:31:42;825.33;;;727.58;;
7783;SDS011;19359;51.402;6.778;2023-06-10T08:34:09;840.78;;;724.88;;
7783;SDS011;19359;51.402;6.778;2023-06-10T08:36:37;824.75;;;725.60;;
7783;SDS011;19359;51.402;6.778;2023-06-10T08:39:04;844.08;;;745.60;;
7783;SDS011;19359;51.402;6.778;2023-06-10T08:41:32;833.90;;;740.22;;
7783;SDS011;19359;51.402;6.778;2023-06-10T08:44:03;852.42;;;740.40;;
7783;SDS011;19359;51.402;6.778;2023-06-10T08:46:31;824.47;;;713.78;;
7783;SDS011;19359;51.402;6.778;2023-06-10T08:49:00;845.47;;;735.28;;
7783;SDS011;19359;51.402;6.778;2023-06-10T08:51:29;827.10;;;733.45;;
7783;SDS011;19359;51.402;6.778;2023-06-10T08:54:01;856.30;;;750.75;;
7783;SDS011;19359;51.402;6.778;2023-06-10T08:56:31;833.75;;;740.83;;
7783;SDS011;19359;51.402;6.778;2023-06-10T08:59:01;866.78;;;770.15;;
7783;SDS011;19359;51.402;6.778;2023-06-10T09:01:28;847.17;;;753.30;;
7783;SDS011;19359;51.402;6.778;2023-06-10T09:03:56;858.33;;;762.25;;
7783;SDS011;19359;51.402;6.778;2023-06-10T09:06:25;867.63;;;773.45;;
7783;SDS011;19359;51.402;6.778;2023-06-10T09:08:53;855.67;;;761.35;;
7783;SDS011;19359;51.402;6.778;2023-06-10T09:11:20;853.75;;;761.10;;
7783;SDS011;19359;51.402;6.778;2023-06-10T09:13:47;848.13;;;755.47;;
7783;SDS011;19359;51.402;6.778;2023-06-10T09:16:14;840.67;;;748.47;;
7783;SDS011;19359;51.402;6.778;2023-06-10T09:18:41;855.58;;;762.83;;
7783;SDS011;19359;51.402;6.778;2023-06-10T09:21:09;848.38;;;756.22;;
7783;SDS011;19359;51.402;6.778;2023-06-10T09:23:37;856.92;;;764.35;;
7783;SDS011;19359;51.402;6.778;2023-06-10T09:26:08;854.83;;;762.17;;
7783;SDS011;19359;51.402;6.778;2023-06-10T09:28:36;872.25;;;777.78;;
7783;SDS011;19359;51.402;6.778;2023-06-10T09:31:04;878.13;;;784.33;;
7783;SDS011;19359;51.402;6.778;2023-06-10T09:33:32;872.08;;;778.13;;
7783;SDS011;19359;51.402;6.778;2023-06-10T09:36:00;870.28;;;777.05;;
7783;SDS011;19359;51.402;6.778;2023-06-10T09:38:31;867.22;;;774.25;;
7783;SDS011;19359;51.402;6.778;2023-06-10T09:41:00;876.70;;;782.92;;
7783;SDS011;19359;51.402;6.778;2023-06-10T09:43:40;869.38;;;776.38;;
7783;SDS011;19359;51.402;6.778;2023-06-10T09:46:13;855.08;;;762.72;;
7783;SDS011;19359;51.402;6.778;2023-06-10T09:48:41;863.47;;;770.78;;
7783;SDS011;19359;51.402;6.778;2023-06-10T09:51:12;865.47;;;772.83;;
7783;SDS011;19359;51.402;6.778;2023-06-10T09:53:40;849.60;;;757.60;;
7783;SDS011;19359;51.402;6.778;2023-06-10T09:56:08;876.20;;;782.72;;
7783;SDS011;19359;51.402;6.778;2023-06-10T09:58:36;893.67;;;798.97;;
7783;SDS011;19359;51.402;6.778;2023-06-10T10:01:06;894.92;;;800.42;;
7783;SDS011;19359;51.402;6.778;2023-06-10T10:03:33;912.10;;;816.63;;
7783;SDS011;19359;51.402;6.778;2023-06-10T10:06:00;894.33;;;799.78;;
7783;SDS011;19359;51.402;6.778;2023-06-10T10:08:27;907.45;;;812.63;;
7783;SDS011;19359;51.402;6.778;2023-06-10T10:10:55;904.97;;;809.58;;
7783;SDS011;19359;51.402;6.778;2023-06-10T10:13:24;920.65;;;825.08;;
7783;SDS011;19359;51.402;6.778;2023-06-10T10:15:53;925.28;;;829.88;;
7783;SDS011;19359;51.402;6.778;2023-06-10T10:18:21;914.47;;;819.13;;
7783;SDS011;19359;51.402;6.778;2023-06-10T10:20:53;917.53;;;822.17;;
7783;SDS011;19359;51.402;6.778;2023-06-10T10:23:21;913.10;;;817.83;;
7783;SDS011;19359;51.402;6.778;2023-06-10T10:25:51;930.30;;;833.83;;
7783;SDS011;19359;51.402;6.778;2023-06-10T10:28:20;931.92;;;834.28;;
7783;SDS011;19359;51.402;6.778;2023-06-10T10:30:50;920.80;;;825.13;;
7783;SDS011;19359;51.402;6.778;2023-06-10T10:33:20;911.78;;;817.00;;
7783;SDS011;19359;51.402;6.778;2023-06-10T10:35:48;905.58;;;811.10;;
7783;SDS011;19359;51.402;6.778;2023-06-10T10:38:16;922.97;;;827.08;;
7783;SDS011;19359;51.402;6.778;2023-06-10T10:40:43;916.83;;;821.70;;
7783;SDS011;19359;51.402;6.778;2023-06-10T10:43:11;921.55;;;826.17;;
7783;SDS011;19359;51.402;6.778;2023-06-10T10:45:39;920.60;;;825.40;;
7783;SDS011;19359;51.402;6.778;2023-06-10T10:48:08;920.90;;;825.95;;
7783;SDS011;19359;51.402;6.778;2023-06-10T10:50:37;916.28;;;820.40;;
7783;SDS011;19359;51.402;6.778;2023-06-10T10:53:05;935.83;;;839.40;;
7783;SDS011;19359;51.402;6.778;2023-06-10T10:55:32;920.17;;;824.50;;
7783;SDS011;19359;51.402;6.778;2023-06-10T10:58:02;926.00;;;831.20;;
7783;SDS011;19359;51.402;6.778;2023-06-10T11:00:30;924.08;;;829.03;;
7783;SDS011;19359;51.402;6.778;2023-06-10T11:02:58;937.00;;;841.38;;
7783;SDS011;19359;51.402;6.778;2023-06-10T11:05:32;927.17;;;831.85;;
7783;SDS011;19359;51.402;6.778;2023-06-10T11:08:02;928.40;;;832.72;;
7783;SDS011;19359;51.402;6.778;2023-06-10T11:10:30;922.60;;;827.70;;
7783;SDS011;19359;51.402;6.778;2023-06-10T11:12:57;932.85;;;837.85;;
7783;SDS011;19359;51.402;6.778;2023-06-10T11:15:26;923.70;;;829.13;;
7783;SDS011;19359;51.402;6.778;2023-06-10T11:18:06;926.17;;;831.30;;
7783;SDS011;19359;51.402;6.778;2023-06-10T11:23:32;931.90;;;836.47;;
7783;SDS011;19359;51.402;6.778;2023-06-10T11:26:12;941.03;;;844.60;;
7783;SDS011;19359;51.402;6.778;2023-06-10T11:28:39;926.17;;;831.65;;
7783;SDS011;19359;51.402;6.778;2023-06-10T11:31:07;938.15;;;842.00;;
7783;SDS011;19359;51.402;6.778;2023-06-10T11:33:34;944.67;;;848.42;;
7783;SDS011;19359;51.402;6.778;2023-06-10T11:36:06;929.80;;;835.22;;
7783;SDS011;19359;51.402;6.778;2023-06-10T11:38:34;924.08;;;829.70;;
7783;SDS011;19359;51.402;6.778;2023-06-10T11:41:02;938.55;;;843.92;;
7783;SDS011;19359;51.402;6.778;2023-06-10T11:43:29;962.30;;;866.20;;
7783;SDS011;19359;51.402;6.778;2023-06-10T11:45:57;963.00;;;866.78;;
7783;SDS011;19359;51.402;6.778;2023-06-10T11:48:24;953.95;;;858.42;;
7783;SDS011;19359;51.402;6.778;2023-06-10T11:50:53;962.90;;;866.83;;
7783;SDS011;19359;51.402;6.778;2023-06-10T11:53:20;965.08;;;868.78;;
7783;SDS011;19359;51.402;6.778;2023-06-10T11:55:50;962.38;;;865.92;;
7783;SDS011;19359;51.402;6.778;2023-06-10T11:58:17;969.55;;;873.40;;
7783;SDS011;19359;51.402;6.778;2023-06-10T12:00:46;957.30;;;861.97;;
7783;SDS011;19359;51.402;6.778;2023-06-10T12:03:13;970.35;;;874.35;;
7783;SDS011;19359;51.402;6.778;2023-06-10T12:05:40;977.58;;;880.70;;
7783;SDS011;19359;51.402;6.778;2023-06-10T12:08:20;963.40;;;867.33;;
7783;SDS011;19359;51.402;6.778;2023-06-10T12:10:48;959.78;;;864.42;;
7783;SDS011;19359;51.402;6.778;2023-06-10T12:13:15;959.38;;;863.85;;
7783;SDS011;19359;51.402;6.778;2023-06-10T12:15:43;955.95;;;860.53;;
7783;SDS011;19359;51.402;6.778;2023-06-10T12:18:15;963.40;;;867.53;;
7783;SDS011;19359;51.402;6.778;2023-06-10T12:20:42;968.70;;;872.97;;
7783;SDS011;19359;51.402;6.778;2023-06-10T12:23:10;983.90;;;886.97;;
7783;SDS011;19359;51.402;6.778;2023-06-10T12:25:37;982.55;;;885.33;;
7783;SDS011;19359;51.402;6.778;2023-06-10T12:28:09;990.88;;;893.63;;
7783;SDS011;19359;51.402;6.778;2023-06-10T12:30:37;975.38;;;879.15;;
7783;SDS011;19359;51.402;6.778;2023-06-10T12:33:04;985.75;;;888.58;;
7783;SDS011;19359;51.402;6.778;2023-06-10T12:35:46;994.38;;;897.20;;
7783;SDS011;19359;51.402;6.778;2023-06-10T12:38:14;978.67;;;882.25;;
7783;SDS011;19359;51.402;6.778;2023-06-10T12:40:42;989.53;;;892.50;;
7783;SDS011;19359;51.402;6.778;2023-06-10T12:43:10;1016.58;;;917.78;;
7783;SDS011;19359;51.402;6.778;2023-06-10T12:45:38;1006.42;;;908.95;;
7783;SDS011;19359;51.402;6.778;2023-06-10T12:48:08;1008.33;;;910.25;;
7783;SDS011;19359;51.402;6.778;2023-06-10T12:50:36;1022.55;;;924.10;;
7783;SDS011;19359;51.402;6.778;2023-06-10T12:53:04;1024.88;;;926.03;;
7783;SDS011;19359;51.402;6.778;2023-06-10T12:55:31;1040.60;;;939.20;;
7783;SDS011;19359;51.402;6.778;2023-06-10T12:57:58;1027.80;;;928.40;;
7783;SDS011;19359;51.402;6.778;2023-06-10T13:00:28;1018.95;;;920.80;;
7783;SDS011;19359;51.402;6.778;2023-06-10T13:02:55;1030.15;;;931.15;;
7783;SDS011;19359;51.402;6.778;2023-06-10T13:05:22;1015.97;;;917.55;;
7783;SDS011;19359;51.402;6.778;2023-06-10T13:07:49;1022.85;;;924.72;;
7783;SDS011;19359;51.402;6.778;2023-06-10T13:10:16;1022.30;;;924.03;;
7783;SDS011;19359;51.402;6.778;2023-06-10T13:12:44;1027.70;;;928.63;;
7783;SDS011;19359;51.402;6.778;2023-06-10T13:15:12;1033.47;;;934.40;;
7783;SDS011;19359;51.402;6.778;2023-06-10T13:17:41;1041.10;;;941.28;;
7783;SDS011;19359;51.402;6.778;2023-06-10T13:20:09;1030.55;;;931.35;;
7783;SDS011;19359;51.402;6.778;2023-06-10T13:22:36;1038.60;;;939.38;;
7783;SDS011;19359;51.402;6.778;2023-06-10T13:25:04;1041.18;;;942.10;;
7783;SDS011;19359;51.402;6.778;2023-06-10T13:27:32;1057.40;;;957.15;;
7783;SDS011;19359;51.402;6.778;2023-06-10T13:29:59;1044.35;;;945.17;;
7783;SDS011;19359;51.402;6.778;2023-06-10T13:32:26;1052.88;;;952.53;;
7783;SDS011;19359;51.402;6.778;2023-06-10T13:34:55;1047.38;;;947.25;;
7783;SDS011;19359;51.402;6.778;2023-06-10T13:37:22;1045.43;;;946.42;;
7783;SDS011;19359;51.402;6.778;2023-06-10T13:39:50;1055.00;;;955.30;;
7783;SDS011;19359;51.402;6.778;2023-06-10T13:42:17;1066.63;;;966.40;;
7783;SDS011;19359;51.402;6.778;2023-06-10T13:44:44;1052.07;;;952.75;;
7783;SDS011;19359;51.402;6.778;2023-06-10T13:47:12;1054.45;;;954.47;;
7783;SDS011;19359;51.402;6.778;2023-06-10T13:49:39;1061.15;;;961.08;;
7783;SDS011;19359;51.402;6.778;2023-06-10T13:52:08;1036.00;;;937.58;;
7783;SDS011;19359;51.402;6.778;2023-06-10T13:54:35;1056.20;;;954.33;;
7783;SDS011;19359;51.402;6.778;2023-06-10T13:57:02;1040.95;;;942.47;;
7783;SDS011;19359;51.402;6.778;2023-06-10T13:59:29;1068.28;;;966.70;;
7783;SDS011;19359;51.402;6.778;2023-06-10T14:01:56;1051.65;;;952.78;;
7783;SDS011;19359;51.402;6.778;2023-06-10T14:04:23;1064.88;;;963.45;;
7783;SDS011;19359;51.402;6.778;2023-06-10T14:06:50;1061.35;;;961.72;;
7783;SDS011;19359;51.402;6.778;2023-06-10T14:09:19;1061.30;;;960.65;;
7783;SDS011;19359;51.402;6.778;2023-06-10T14:11:47;1049.72;;;950.22;;
7783;SDS011;19359;51.402;6.778;2023-06-10T14:14:14;1044.53;;;945.28;;
7783;SDS011;19359;51.402;6.778;2023-06-10T14:16:41;1062.63;;;962.80;;
7783;SDS011;19359;51.402;6.778;2023-06-10T14:19:08;1061.40;;;961.33;;